createdAt,value
2022-08-10T00:01:03.130Z,16.90
2022-08-10T00:03:31.439Z,16.80
2022-08-10T00:06:00.946Z,16.90
2022-08-10T00:08:29.405Z,16.80
2022-08-10T00:10:58.159Z,16.70
2022-08-10T00:13:27.046Z,16.70
2022-08-10T00:15:55.599Z,16.70
2022-08-10T00:18:31.575Z,16.70
2022-08-10T00:21:04.945Z,16.70
2022-08-10T00:23:33.162Z,16.70
2022-08-10T00:26:02.011Z,16.70
2022-08-10T00:28:30.101Z,16.70
2022-08-10T00:31:00.686Z,16.70
2022-08-10T00:33:28.872Z,16.80
2022-08-10T00:35:56.934Z,16.60
2022-08-10T00:38:26.345Z,16.60
2022-08-10T00:40:54.331Z,16.70
2022-08-10T00:43:23.674Z,16.80
2022-08-10T00:45:58.482Z,16.70
2022-08-10T00:48:29.193Z,16.70
2022-08-10T00:50:57.423Z,16.70
2022-08-10T00:53:27.115Z,16.70
2022-08-10T00:57:09.896Z,16.70
2022-08-10T00:58:43.870Z,16.60
2022-08-10T01:02:10.763Z,16.60
2022-08-10T01:04:36.536Z,16.60
2022-08-10T01:06:51.137Z,16.60
2022-08-10T01:09:22.841Z,16.60
2022-08-10T01:12:39.510Z,16.40
2022-08-10T01:14:43.854Z,16.50
2022-08-10T01:17:15.449Z,16.60
2022-08-10T01:19:58.740Z,16.50
2022-08-10T01:22:45.997Z,16.50
2022-08-10T01:25:30.788Z,16.50
2022-08-10T01:28:05.803Z,16.50
2022-08-10T01:30:35.972Z,16.50
2022-08-10T01:33:05.290Z,16.40
2022-08-10T01:35:36.632Z,16.40
2022-08-10T01:38:06.553Z,16.40
2022-08-10T01:40:39.636Z,16.40
2022-08-10T01:43:10.232Z,16.30
2022-08-10T01:45:45.619Z,16.30
2022-08-10T01:48:28.580Z,16.20
2022-08-10T01:51:00.080Z,16.20
2022-08-10T01:53:40.012Z,16.30
2022-08-10T01:56:13.350Z,16.30
2022-08-10T01:58:42.044Z,16.20
2022-08-10T02:01:16.632Z,16.10
2022-08-10T02:04:05.303Z,16.20
2022-08-10T02:06:35.300Z,16.20
2022-08-10T02:09:06.381Z,16.20
2022-08-10T02:12:06.790Z,16.20
2022-08-10T02:14:25.300Z,16.20
2022-08-10T02:17:05.265Z,16.30
2022-08-10T02:19:34.503Z,16.20
2022-08-10T02:22:36.594Z,16.20
2022-08-10T02:24:52.133Z,16.30
2022-08-10T02:27:22.777Z,16.20
2022-08-10T02:29:52.204Z,16.20
2022-08-10T02:32:24.546Z,16.10
2022-08-10T02:35:07.202Z,16.10
2022-08-10T02:37:35.808Z,16.20
2022-08-10T02:40:04.199Z,16.10
2022-08-10T02:45:21.101Z,16.10
2022-08-10T02:45:30.989Z,16.00
2022-08-10T02:48:02.766Z,16.10
2022-08-10T02:50:32.392Z,16.10
2022-08-10T02:53:02.907Z,16.10
2022-08-10T02:55:34.093Z,16.10
2022-08-10T02:58:17.345Z,16.10
2022-08-10T03:00:48.379Z,16.10
2022-08-10T03:03:20.252Z,16.10
2022-08-10T03:05:51.402Z,16.10
2022-08-10T03:08:20.621Z,16.10
2022-08-10T03:10:51.382Z,16.10
2022-08-10T03:13:20.478Z,16.10
2022-08-10T03:15:49.251Z,16.20
2022-08-10T03:18:20.051Z,16.30
2022-08-10T03:20:48.531Z,16.20
2022-08-10T03:23:20.214Z,16.30
2022-08-10T03:25:53.709Z,16.30
2022-08-10T03:28:23.753Z,16.30
2022-08-10T03:30:52.352Z,16.30
2022-08-10T03:33:22.721Z,16.40
2022-08-10T03:36:43.026Z,16.50
2022-08-10T03:38:41.738Z,16.50
2022-08-10T03:41:11.207Z,16.50
2022-08-10T03:43:46.375Z,16.50
2022-08-10T03:46:15.061Z,16.50
2022-08-10T03:48:49.305Z,16.60
2022-08-10T03:51:18.920Z,16.40
2022-08-10T03:54:05.459Z,16.50
2022-08-10T03:56:39.278Z,16.60
2022-08-10T03:59:08.239Z,16.60
2022-08-10T04:02:46.227Z,16.60
2022-08-10T04:04:26.499Z,16.60
2022-08-10T04:06:55.917Z,16.70
2022-08-10T04:09:24.632Z,16.70
2022-08-10T04:11:58.456Z,16.60
2022-08-10T04:14:49.518Z,16.70
2022-08-10T04:17:17.602Z,16.60
2022-08-10T04:20:08.678Z,16.70
2022-08-10T04:22:37.769Z,16.60
2022-08-10T04:25:06.431Z,16.60
2022-08-10T04:27:34.606Z,16.70
2022-08-10T04:30:02.813Z,16.60
2022-08-10T04:32:34.847Z,16.60
2022-08-10T04:35:04.890Z,16.70
2022-08-10T04:37:47.534Z,16.80
2022-08-10T04:40:24.925Z,16.80
2022-08-10T04:43:05.875Z,16.90
2022-08-10T04:45:49.927Z,16.90
2022-08-10T04:48:40.527Z,16.90
2022-08-10T04:51:07.446Z,17.00
2022-08-10T04:54:02.950Z,17.30
2022-08-10T04:56:31.352Z,17.30
2022-08-10T04:59:00.432Z,17.20
2022-08-10T05:02:22.145Z,17.30
2022-08-10T05:04:35.509Z,17.20
2022-08-10T05:07:04.908Z,17.40
2022-08-10T05:10:02.957Z,17.40
2022-08-10T05:12:25.303Z,17.40
2022-08-10T05:14:54.736Z,17.30
2022-08-10T05:17:23.323Z,17.20
2022-08-10T05:20:04.953Z,17.30
2022-08-10T05:22:35.329Z,17.40
2022-08-10T05:25:05.876Z,17.50
2022-08-10T05:27:34.087Z,17.60
2022-08-10T05:30:03.690Z,17.80
2022-08-10T05:32:32.516Z,18.00
2022-08-10T05:35:20.626Z,18.10
2022-08-10T05:38:13.429Z,18.30
2022-08-10T05:40:46.292Z,18.60
2022-08-10T05:43:17.081Z,18.60
2022-08-10T05:46:18.234Z,19.10
2022-08-10T05:48:40.667Z,19.00
2022-08-10T05:51:22.006Z,19.20
2022-08-10T05:54:03.615Z,19.30
2022-08-10T05:56:56.808Z,19.50
2022-08-10T06:00:29.440Z,19.30
2022-08-10T06:02:41.506Z,19.30
2022-08-10T06:05:10.841Z,19.10
2022-08-10T06:07:40.573Z,19.00
2022-08-10T06:10:10.665Z,19.00
2022-08-10T06:12:55.718Z,19.20
2022-08-10T06:15:50.700Z,19.20
2022-08-10T06:18:13.368Z,19.10
2022-08-10T06:20:42.270Z,19.10
2022-08-10T06:23:11.165Z,18.90
2022-08-10T06:26:11.978Z,19.00
2022-08-10T06:28:30.029Z,19.00
2022-08-10T06:31:01.807Z,19.00
2022-08-10T06:33:33.558Z,19.10
2022-08-10T06:36:05.884Z,19.20
2022-08-10T06:38:38.146Z,19.20
2022-08-10T06:41:16.756Z,19.40
2022-08-10T06:43:51.696Z,19.50
2022-08-10T06:46:23.673Z,19.60
2022-08-10T06:48:53.079Z,19.60
2022-08-10T06:51:23.559Z,19.70
2022-08-10T06:53:55.121Z,19.70
2022-08-10T06:56:36.636Z,19.80
2022-08-10T06:59:13.290Z,19.70
2022-08-10T07:01:51.753Z,19.70
2022-08-10T07:04:32.754Z,19.80
2022-08-10T07:07:06.974Z,19.70
2022-08-10T07:09:37.522Z,19.90
2022-08-10T07:12:07.761Z,20.00
2022-08-10T07:14:41.267Z,20.00
2022-08-10T07:17:15.699Z,20.10
2022-08-10T07:19:49.958Z,20.30
2022-08-10T07:23:22.883Z,20.20
2022-08-10T07:25:10.471Z,20.30
2022-08-10T07:27:59.973Z,20.40
2022-08-10T07:30:32.428Z,20.30
2022-08-10T07:33:01.711Z,20.00
2022-08-10T07:35:36.481Z,20.00
2022-08-10T07:38:10.775Z,20.10
2022-08-10T07:40:40.256Z,20.20
2022-08-10T07:43:09.263Z,20.10
2022-08-10T07:45:39.046Z,20.20
2022-08-10T07:48:12.190Z,20.10
2022-08-10T07:50:43.780Z,20.20
2022-08-10T07:53:14.894Z,20.20
2022-08-10T07:56:03.750Z,20.30
2022-08-10T07:58:35.536Z,20.40
2022-08-10T08:01:05.076Z,20.20
2022-08-10T08:03:34.324Z,20.10
2022-08-10T08:06:09.091Z,20.20
2022-08-10T08:08:42.067Z,20.00
2022-08-10T08:11:26.271Z,20.00
2022-08-10T08:13:57.507Z,19.90
2022-08-10T08:16:27.424Z,20.00
2022-08-10T08:24:07.808Z,20.00
2022-08-10T08:24:42.999Z,20.10
2022-08-10T08:27:26.546Z,20.10
2022-08-10T08:30:12.429Z,20.10
2022-08-10T08:32:44.226Z,20.30
2022-08-10T08:35:13.629Z,20.40
2022-08-10T08:38:29.545Z,20.60
2022-08-10T08:40:33.675Z,20.70
2022-08-10T08:43:16.564Z,20.70
2022-08-10T08:46:01.963Z,20.70
2022-08-10T08:48:47.105Z,20.60
2022-08-10T08:52:11.402Z,20.60
2022-08-10T08:54:25.752Z,20.70
2022-08-10T08:56:59.995Z,20.80
2022-08-10T08:59:35.702Z,20.80
2022-08-10T09:02:10.365Z,20.90
2022-08-10T09:05:00.073Z,20.90
2022-08-10T09:08:00.066Z,21.10
2022-08-10T09:10:38.642Z,21.00
2022-08-10T09:13:09.643Z,20.90
2022-08-10T09:15:43.849Z,21.10
2022-08-10T09:18:15.173Z,21.20
2022-08-10T09:20:48.052Z,21.50
2022-08-10T09:23:20.923Z,21.70
2022-08-10T09:26:13.129Z,22.00
2022-08-10T09:28:43.212Z,22.00
2022-08-10T09:31:22.514Z,22.00
2022-08-10T09:36:22.616Z,22.10
2022-08-10T09:36:45.874Z,22.30
2022-08-10T09:40:56.531Z,22.20
2022-08-10T09:42:13.180Z,22.10
2022-08-10T09:44:57.417Z,22.00
2022-08-10T09:48:02.682Z,22.10
2022-08-10T09:50:26.035Z,22.10
2022-08-10T09:53:06.193Z,22.00
2022-08-10T09:56:18.248Z,22.10
2022-08-10T09:58:40.967Z,22.20
2022-08-10T10:01:23.598Z,22.10
2022-08-10T10:04:08.180Z,22.20
2022-08-10T10:06:39.780Z,22.30
2022-08-10T10:09:15.947Z,22.40
2022-08-10T10:11:49.390Z,22.40
2022-08-10T10:14:22.834Z,22.60
2022-08-10T10:17:04.270Z,22.70
2022-08-10T10:19:41.019Z,22.60
2022-08-10T10:22:22.183Z,22.70
2022-08-10T10:24:56.213Z,22.70
2022-08-10T10:27:28.568Z,22.80
2022-08-10T10:30:00.899Z,22.90
2022-08-10T10:32:36.948Z,22.90
2022-08-10T10:35:10.779Z,22.90
2022-08-10T10:38:01.226Z,23.10
2022-08-10T10:40:31.536Z,23.30
2022-08-10T10:43:03.523Z,23.20
2022-08-10T10:45:40.325Z,23.10
2022-08-10T10:48:23.934Z,23.10
2022-08-10T10:51:01.714Z,23.10
2022-08-10T10:53:32.499Z,23.20
2022-08-10T10:56:14.913Z,23.70
2022-08-10T10:58:58.043Z,23.80
2022-08-10T11:01:32.115Z,23.90
2022-08-10T11:04:07.973Z,23.90
2022-08-10T11:06:47.041Z,23.90
2022-08-10T11:10:04.743Z,23.90
2022-08-10T11:12:11.353Z,23.90
2022-08-10T11:14:45.869Z,23.80
2022-08-10T11:17:18.923Z,24.00
2022-08-10T11:20:02.037Z,24.30
2022-08-10T11:22:36.868Z,24.40
2022-08-10T11:25:14.083Z,24.30
2022-08-10T11:27:51.939Z,24.50
2022-08-10T11:30:21.728Z,24.70
2022-08-10T11:33:04.776Z,24.50
2022-08-10T11:35:49.331Z,24.90
2022-08-10T11:38:34.659Z,24.90
2022-08-10T11:42:06.555Z,24.90
2022-08-10T11:44:04.601Z,25.00
2022-08-10T11:46:36.882Z,24.80
2022-08-10T11:49:08.311Z,24.70
2022-08-10T11:51:43.278Z,24.90
2022-08-10T11:54:15.756Z,24.70
2022-08-10T11:56:55.329Z,24.80
2022-08-10T11:59:46.237Z,25.20
2022-08-10T12:02:15.942Z,25.20
2022-08-10T12:04:53.300Z,24.80
2022-08-10T12:10:02.787Z,24.50
2022-08-10T12:10:13.839Z,24.70
2022-08-10T12:12:44.692Z,24.90
2022-08-10T12:15:17.948Z,24.90
2022-08-10T12:17:48.671Z,25.30
2022-08-10T12:20:19.272Z,25.50
2022-08-10T12:22:49.750Z,25.80
2022-08-10T12:25:56.841Z,25.70
2022-08-10T12:28:12.954Z,26.00
2022-08-10T12:30:48.111Z,26.00
2022-08-10T12:33:21.154Z,25.80
2022-08-10T12:36:16.759Z,25.40
2022-08-10T12:38:43.721Z,25.70
2022-08-10T12:41:19.294Z,25.80
2022-08-10T12:44:09.863Z,26.10
2022-08-10T12:46:50.625Z,26.20
2022-08-10T12:49:22.298Z,26.20
2022-08-10T12:51:53.748Z,26.20
2022-08-10T12:54:32.566Z,26.30
2022-08-10T12:57:02.224Z,26.20
2022-08-10T12:59:31.711Z,26.10
2022-08-10T13:02:18.429Z,25.80
2022-08-10T13:04:50.265Z,26.10
2022-08-10T13:08:04.030Z,26.50
2022-08-10T13:10:19.585Z,26.80
2022-08-10T13:12:50.408Z,26.60
2022-08-10T13:15:45.803Z,26.30
2022-08-10T13:18:18.678Z,26.40
2022-08-10T13:20:52.291Z,26.80
2022-08-10T13:23:22.756Z,26.90
2022-08-10T13:25:53.003Z,26.60
2022-08-10T13:28:36.252Z,26.60
2022-08-10T13:31:08.755Z,26.00
2022-08-10T13:34:38.905Z,26.00
2022-08-10T13:36:37.950Z,25.80
2022-08-10T13:39:07.255Z,26.00
2022-08-10T13:41:41.863Z,26.40
2022-08-10T13:44:10.920Z,26.50
2022-08-10T13:46:40.615Z,26.70
2022-08-10T13:49:11.236Z,26.60
2022-08-10T13:51:54.324Z,26.90
2022-08-10T13:54:27.988Z,26.90
2022-08-10T13:56:57.288Z,26.70
2022-08-10T14:00:34.030Z,26.90
2022-08-10T14:02:18.331Z,26.90
2022-08-10T14:04:48.143Z,26.90
2022-08-10T14:07:17.224Z,27.00
2022-08-10T14:09:47.998Z,27.00
2022-08-10T14:12:17.291Z,27.10
2022-08-10T14:14:52.683Z,27.20
2022-08-10T14:17:22.230Z,27.30
2022-08-10T14:19:59.216Z,27.50
2022-08-10T14:22:34.598Z,27.30
2022-08-10T14:25:12.577Z,27.30
2022-08-10T14:28:02.579Z,27.10
2022-08-10T14:30:33.075Z,27.60
2022-08-10T14:33:04.626Z,27.50
2022-08-10T14:36:19.683Z,27.50
2022-08-10T14:38:29.052Z,27.60
2022-08-10T14:40:58.451Z,27.40
2022-08-10T14:43:28.656Z,27.20
2022-08-10T14:46:01.632Z,27.30
2022-08-10T14:48:33.170Z,27.40
2022-08-10T14:51:04.137Z,27.40
2022-08-10T14:53:36.508Z,27.70
2022-08-10T14:59:05.392Z,27.80
2022-08-10T15:02:37.940Z,27.40
2022-08-10T15:04:23.442Z,27.40
2022-08-10T15:06:57.431Z,27.40
2022-08-10T15:09:28.280Z,27.30
2022-08-10T15:12:13.441Z,27.30
2022-08-10T15:14:45.769Z,27.40
2022-08-10T15:17:15.152Z,27.10
2022-08-10T15:20:03.567Z,26.60
2022-08-10T15:22:38.611Z,26.60
2022-08-10T15:25:18.701Z,26.50
2022-08-10T15:27:55.371Z,26.10
2022-08-10T15:30:31.640Z,26.30
2022-08-10T15:33:21.693Z,26.60
2022-08-10T15:36:26.065Z,26.70
2022-08-10T15:39:00.435Z,26.90
2022-08-10T15:41:59.217Z,27.00
2022-08-10T15:44:25.490Z,27.20
2022-08-10T15:46:57.916Z,27.00
2022-08-10T15:49:31.084Z,27.00
2022-08-10T15:52:02.435Z,27.00
2022-08-10T15:54:34.614Z,26.60
2022-08-10T15:57:04.254Z,26.50
2022-08-10T15:59:33.518Z,26.60
2022-08-10T16:02:15.969Z,26.80
2022-08-10T16:04:49.291Z,26.60
2022-08-10T16:07:22.081Z,26.20
2022-08-10T16:10:24.211Z,26.10
2022-08-10T16:12:59.510Z,26.20
2022-08-10T16:15:31.969Z,26.30
2022-08-10T16:18:02.490Z,26.20
2022-08-10T16:20:33.446Z,26.40
2022-08-10T16:23:22.621Z,26.30
2022-08-10T16:25:58.440Z,26.60
2022-08-10T16:28:32.589Z,26.30
2022-08-10T16:31:01.959Z,26.10
2022-08-10T16:33:54.322Z,26.40
2022-08-10T16:36:20.993Z,26.30
2022-08-10T16:38:50.514Z,26.20
2022-08-10T16:42:03.558Z,26.10
2022-08-10T16:44:14.446Z,25.90
2022-08-10T16:46:43.889Z,25.80
2022-08-10T16:49:13.083Z,25.80
2022-08-10T16:51:41.902Z,25.90
2022-08-10T16:54:10.967Z,25.80
2022-08-10T16:56:49.020Z,25.90
2022-08-10T16:59:20.690Z,25.80
2022-08-10T17:01:53.869Z,26.00
2022-08-10T17:04:23.838Z,26.10
2022-08-10T17:06:57.783Z,26.00
2022-08-10T17:09:28.942Z,25.60
2022-08-10T17:11:59.514Z,25.60
2022-08-10T17:14:30.416Z,25.60
2022-08-10T17:17:00.716Z,25.40
2022-08-10T17:19:31.142Z,25.10
2022-08-10T17:22:00.807Z,25.10
2022-08-10T17:24:31.951Z,25.20
2022-08-10T17:28:04.946Z,25.20
2022-08-10T17:30:02.825Z,24.90
2022-08-10T17:32:44.031Z,25.10
2022-08-10T17:35:14.260Z,25.10
2022-08-10T17:37:46.482Z,25.20
2022-08-10T17:40:17.094Z,25.10
2022-08-10T17:42:50.061Z,25.20
2022-08-10T17:45:20.866Z,25.10
2022-08-10T17:48:09.508Z,25.30
2022-08-10T17:50:39.129Z,25.00
2022-08-10T17:53:11.543Z,25.10
2022-08-10T17:55:40.947Z,25.10
2022-08-10T17:58:14.601Z,24.90
2022-08-10T18:00:44.492Z,24.90
2022-08-10T18:03:15.778Z,24.90
2022-08-10T18:05:55.988Z,24.50
2022-08-10T18:08:27.512Z,24.70
2022-08-10T18:10:58.711Z,24.60
2022-08-10T18:13:55.734Z,24.50
2022-08-10T18:16:24.134Z,24.70
2022-08-10T18:19:00.092Z,24.60
2022-08-10T18:21:32.432Z,24.50
2022-08-10T18:24:02.126Z,24.50
2022-08-10T18:26:35.082Z,24.40
2022-08-10T18:29:07.599Z,24.40
2022-08-10T18:31:39.514Z,24.10
2022-08-10T18:34:12.978Z,23.90
2022-08-10T18:36:43.343Z,23.70
2022-08-10T18:39:12.145Z,23.70
2022-08-10T18:42:00.424Z,23.50
2022-08-10T18:44:39.410Z,23.30
2022-08-10T18:47:09.743Z,23.40
2022-08-10T18:49:42.448Z,23.30
2022-08-10T18:52:11.519Z,23.00
2022-08-10T18:54:45.579Z,23.00
2022-08-10T18:57:18.938Z,22.80
2022-08-10T19:00:08.616Z,22.80
2022-08-10T19:02:48.773Z,22.60
2022-08-10T19:05:31.156Z,22.50
2022-08-10T19:08:30.023Z,22.40
2022-08-10T19:11:05.503Z,22.60
2022-08-10T19:13:50.631Z,22.40
2022-08-10T19:16:30.283Z,22.40
2022-08-10T19:19:16.210Z,22.30
2022-08-10T19:22:06.809Z,22.30
2022-08-10T19:24:50.063Z,22.20
2022-08-10T19:27:27.401Z,22.40
2022-08-10T19:30:11.757Z,22.20
2022-08-10T19:32:56.451Z,22.20
2022-08-10T19:35:32.294Z,22.10
2022-08-10T19:38:08.577Z,21.90
2022-08-10T19:40:50.291Z,22.00
2022-08-10T19:43:59.869Z,21.90
2022-08-10T19:46:15.384Z,21.60
2022-08-10T19:48:46.750Z,21.70
2022-08-10T19:51:19.836Z,21.60
2022-08-10T19:53:51.991Z,21.50
2022-08-10T19:56:34.083Z,21.40
2022-08-10T19:59:08.430Z,21.40
2022-08-10T20:01:55.071Z,21.40
2022-08-10T20:04:28.874Z,21.40
2022-08-10T20:07:01.462Z,21.20
2022-08-10T20:09:35.635Z,21.30
2022-08-10T20:12:05.873Z,21.20
2022-08-10T20:14:36.786Z,21.10
2022-08-10T20:17:06.299Z,21.20
2022-08-10T20:19:54.243Z,21.00
2022-08-10T20:22:29.664Z,21.00
2022-08-10T20:25:03.091Z,20.90
2022-08-10T20:27:58.987Z,21.00
2022-08-10T20:30:33.413Z,20.90
2022-08-10T20:33:05.209Z,21.00
2022-08-10T20:35:43.867Z,20.70
2022-08-10T20:38:14.732Z,20.70
2022-08-10T20:40:43.929Z,20.60
2022-08-10T20:43:19.258Z,20.60
2022-08-10T20:46:07.896Z,20.60
2022-08-10T20:48:39.200Z,20.60
2022-08-10T20:51:09.734Z,20.50
2022-08-10T20:53:51.930Z,20.60
2022-08-10T20:56:28.173Z,20.50
2022-08-10T20:59:09.672Z,20.40
2022-08-10T21:02:05.723Z,20.50
2022-08-10T21:04:44.410Z,20.40
2022-08-10T21:07:28.178Z,20.40
2022-08-10T21:10:07.399Z,20.30
2022-08-10T21:12:59.167Z,20.40
2022-08-10T21:15:44.670Z,20.30
2022-08-10T21:18:24.479Z,20.20
2022-08-10T21:21:11.765Z,20.20
2022-08-10T21:23:49.431Z,20.20
2022-08-10T21:26:19.708Z,20.10
2022-08-10T21:29:07.329Z,20.00
2022-08-10T21:31:43.984Z,20.10
2022-08-10T21:34:19.462Z,20.10
2022-08-10T21:37:07.871Z,20.10
2022-08-10T21:39:48.189Z,20.00
2022-08-10T21:42:40.595Z,19.90
2022-08-10T21:45:54.906Z,19.90
2022-08-10T21:48:41.825Z,19.80
2022-08-10T21:52:01.819Z,19.70
2022-08-10T21:54:42.811Z,19.70
2022-08-10T21:57:42.993Z,19.70
2022-08-10T22:00:32.589Z,19.60
2022-08-10T22:03:21.830Z,19.60
2022-08-10T22:06:09.020Z,19.60
2022-08-10T22:09:00.363Z,19.60
2022-08-10T22:11:53.226Z,19.70
2022-08-10T22:14:43.627Z,19.70
2022-08-10T22:18:01.150Z,19.50
2022-08-10T22:20:43.818Z,19.40
2022-08-10T22:23:34.136Z,19.40
2022-08-10T22:26:28.513Z,19.30
2022-08-10T22:29:16.856Z,19.30
2022-08-10T22:32:11.334Z,19.40
2022-08-10T22:35:21.761Z,19.30
2022-08-10T22:38:15.111Z,19.30
2022-08-10T22:41:02.612Z,19.30
2022-08-10T22:43:49.798Z,19.30
2022-08-10T22:46:37.674Z,19.30
2022-08-10T22:49:05.300Z,19.30
2022-08-10T22:51:39.505Z,19.20
2022-08-10T22:54:30.845Z,19.20
2022-08-10T22:57:18.477Z,19.10
2022-08-10T22:59:46.614Z,19.10
2022-08-10T23:02:19.498Z,19.10
2022-08-10T23:04:49.930Z,19.10
2022-08-10T23:07:26.439Z,19.00
2022-08-10T23:09:58.719Z,18.90
2022-08-10T23:12:29.967Z,19.00
2022-08-10T23:15:16.926Z,18.90
2022-08-10T23:18:07.717Z,18.90
2022-08-10T23:20:37.847Z,19.00
2022-08-10T23:23:10.151Z,18.90
2022-08-10T23:25:56.844Z,18.80
2022-08-10T23:28:38.717Z,18.80
2022-08-10T23:31:11.341Z,18.80
2022-08-10T23:33:40.516Z,18.80
2022-08-10T23:36:34.593Z,18.80
2022-08-10T23:39:25.615Z,18.80
2022-08-10T23:41:53.179Z,18.80
2022-08-10T23:44:23.759Z,18.80
2022-08-10T23:46:54.895Z,18.80
2022-08-10T23:49:24.502Z,18.70
2022-08-10T23:51:55.422Z,18.70
2022-08-10T23:54:26.872Z,18.60
2022-08-10T23:57:01.120Z,18.70
2022-08-10T23:59:32.994Z,18.60
